sensor_id;sensor_type;location;lat;lon;timestamp;P1;durP1;ratioP1;P2;durP2;ratioP2
27857;SDS011;16852;51.446;6.528;2024-01-27T00:00:14;6.47;;;2.28;;
27857;SDS011;16852;51.446;6.528;2024-01-27T00:02:15;9.88;;;2.97;;
27857;SDS011;16852;51.446;6.528;2024-01-27T00:04:16;9.55;;;2.88;;
27857;SDS011;16852;51.446;6.528;2024-01-27T00:06:17;8.27;;;2.60;;
27857;SDS011;16852;51.446;6.528;2024-01-27T00:08:17;11.30;;;2.88;;
27857;SDS011;16852;51.446;6.528;2024-01-27T00:10:18;13.15;;;3.28;;
27857;SDS011;16852;51.446;6.528;2024-01-27T00:12:18;10.77;;;2.78;;
27857;SDS011;16852;51.446;6.528;2024-01-27T00:14:19;10.70;;;3.00;;
27857;SDS011;16852;51.446;6.528;2024-01-27T00:16:20;10.63;;;3.10;;
27857;SDS011;16852;51.446;6.528;2024-01-27T00:18:20;10.95;;;3.08;;
27857;SDS011;16852;51.446;6.528;2024-01-27T00:20:21;10.00;;;3.00;;
27857;SDS011;16852;51.446;6.528;2024-01-27T00:22:21;8.40;;;2.88;;
27857;SDS011;16852;51.446;6.528;2024-01-27T00:24:22;7.13;;;2.63;;
27857;SDS011;16852;51.446;6.528;2024-01-27T00:26:22;12.82;;;2.95;;
27857;SDS011;16852;51.446;6.528;2024-01-27T00:28:23;8.60;;;2.95;;
27857;SDS011;16852;51.446;6.528;2024-01-27T00:30:24;8.45;;;2.63;;
27857;SDS011;16852;51.446;6.528;2024-01-27T00:32:25;10.75;;;3.10;;
27857;SDS011;16852;51.446;6.528;2024-01-27T00:34:26;11.13;;;3.70;;
27857;SDS011;16852;51.446;6.528;2024-01-27T00:36:27;13.98;;;3.67;;
27857;SDS011;16852;51.446;6.528;2024-01-27T00:38:27;8.40;;;3.15;;
27857;SDS011;16852;51.446;6.528;2024-01-27T00:40:28;9.45;;;3.05;;
27857;SDS011;16852;51.446;6.528;2024-01-27T00:42:29;10.45;;;2.90;;
27857;SDS011;16852;51.446;6.528;2024-01-27T00:44:29;12.65;;;3.20;;
27857;SDS011;16852;51.446;6.528;2024-01-27T00:46:30;10.13;;;3.10;;
27857;SDS011;16852;51.446;6.528;2024-01-27T00:48:30;11.98;;;3.10;;
27857;SDS011;16852;51.446;6.528;2024-01-27T00:50:31;9.75;;;3.22;;
27857;SDS011;16852;51.446;6.528;2024-01-27T00:52:31;9.45;;;3.08;;
27857;SDS011;16852;51.446;6.528;2024-01-27T00:54:32;11.30;;;2.50;;
27857;SDS011;16852;51.446;6.528;2024-01-27T00:56:32;9.38;;;3.20;;
27857;SDS011;16852;51.446;6.528;2024-01-27T00:58:33;9.57;;;3.03;;
27857;SDS011;16852;51.446;6.528;2024-01-27T01:00:34;9.88;;;3.38;;
27857;SDS011;16852;51.446;6.528;2024-01-27T01:02:35;9.70;;;3.38;;
27857;SDS011;16852;51.446;6.528;2024-01-27T01:04:37;13.32;;;3.90;;
27857;SDS011;16852;51.446;6.528;2024-01-27T01:06:40;13.07;;;2.88;;
27857;SDS011;16852;51.446;6.528;2024-01-27T01:08:41;9.32;;;2.65;;
27857;SDS011;16852;51.446;6.528;2024-01-27T01:10:42;13.40;;;3.92;;
27857;SDS011;16852;51.446;6.528;2024-01-27T01:12:42;9.60;;;3.17;;
27857;SDS011;16852;51.446;6.528;2024-01-27T01:14:43;10.27;;;2.88;;
27857;SDS011;16852;51.446;6.528;2024-01-27T01:16:43;10.70;;;3.50;;
27857;SDS011;16852;51.446;6.528;2024-01-27T01:18:44;15.65;;;3.58;;
27857;SDS011;16852;51.446;6.528;2024-01-27T01:20:45;13.07;;;3.40;;
27857;SDS011;16852;51.446;6.528;2024-01-27T01:22:45;8.65;;;2.90;;
27857;SDS011;16852;51.446;6.528;2024-01-27T01:24:46;8.32;;;3.53;;
27857;SDS011;16852;51.446;6.528;2024-01-27T01:26:46;16.65;;;3.08;;
27857;SDS011;16852;51.446;6.528;2024-01-27T01:28:47;9.95;;;2.85;;
27857;SDS011;16852;51.446;6.528;2024-01-27T01:30:47;11.38;;;3.75;;
27857;SDS011;16852;51.446;6.528;2024-01-27T01:32:49;10.88;;;3.17;;
27857;SDS011;16852;51.446;6.528;2024-01-27T01:34:51;8.55;;;3.22;;
27857;SDS011;16852;51.446;6.528;2024-01-27T01:36:51;8.30;;;3.15;;
27857;SDS011;16852;51.446;6.528;2024-01-27T01:38:54;15.65;;;3.60;;
27857;SDS011;16852;51.446;6.528;2024-01-27T01:40:54;12.68;;;3.80;;
27857;SDS011;16852;51.446;6.528;2024-01-27T01:42:55;14.63;;;3.58;;
27857;SDS011;16852;51.446;6.528;2024-01-27T01:44:56;10.23;;;2.85;;
27857;SDS011;16852;51.446;6.528;2024-01-27T01:46:56;9.52;;;2.95;;
27857;SDS011;16852;51.446;6.528;2024-01-27T01:48:58;11.52;;;3.33;;
27857;SDS011;16852;51.446;6.528;2024-01-27T01:50:59;11.45;;;3.20;;
27857;SDS011;16852;51.446;6.528;2024-01-27T01:53:00;8.65;;;2.92;;
27857;SDS011;16852;51.446;6.528;2024-01-27T01:55:01;9.20;;;2.90;;
27857;SDS011;16852;51.446;6.528;2024-01-27T01:57:02;9.95;;;3.08;;
27857;SDS011;16852;51.446;6.528;2024-01-27T01:59:03;12.77;;;3.10;;
27857;SDS011;16852;51.446;6.528;2024-01-27T02:01:04;10.88;;;3.90;;
27857;SDS011;16852;51.446;6.528;2024-01-27T02:03:05;9.65;;;3.03;;
27857;SDS011;16852;51.446;6.528;2024-01-27T02:05:10;8.60;;;3.20;;
27857;SDS011;16852;51.446;6.528;2024-01-27T02:07:11;7.03;;;3.30;;
27857;SDS011;16852;51.446;6.528;2024-01-27T02:09:12;10.18;;;4.05;;
27857;SDS011;16852;51.446;6.528;2024-01-27T02:11:13;9.05;;;3.83;;
27857;SDS011;16852;51.446;6.528;2024-01-27T02:13:17;13.65;;;3.35;;
27857;SDS011;16852;51.446;6.528;2024-01-27T02:15:21;11.25;;;3.17;;
27857;SDS011;16852;51.446;6.528;2024-01-27T02:17:22;11.93;;;3.42;;
27857;SDS011;16852;51.446;6.528;2024-01-27T02:19:22;9.07;;;3.22;;
27857;SDS011;16852;51.446;6.528;2024-01-27T02:21:23;11.88;;;3.58;;
27857;SDS011;16852;51.446;6.528;2024-01-27T02:23:24;9.52;;;3.40;;
27857;SDS011;16852;51.446;6.528;2024-01-27T02:25:25;9.73;;;3.33;;
27857;SDS011;16852;51.446;6.528;2024-01-27T02:27:25;14.25;;;3.63;;
27857;SDS011;16852;51.446;6.528;2024-01-27T02:29:26;9.63;;;3.58;;
27857;SDS011;16852;51.446;6.528;2024-01-27T02:31:28;11.00;;;3.50;;
27857;SDS011;16852;51.446;6.528;2024-01-27T02:33:28;6.10;;;2.95;;
27857;SDS011;16852;51.446;6.528;2024-01-27T02:35:29;11.50;;;3.67;;
27857;SDS011;16852;51.446;6.528;2024-01-27T02:37:30;8.25;;;3.08;;
27857;SDS011;16852;51.446;6.528;2024-01-27T02:39:30;12.25;;;4.28;;
27857;SDS011;16852;51.446;6.528;2024-01-27T02:41:31;8.75;;;3.33;;
27857;SDS011;16852;51.446;6.528;2024-01-27T02:43:37;9.00;;;3.33;;
27857;SDS011;16852;51.446;6.528;2024-01-27T02:45:38;8.80;;;3.03;;
27857;SDS011;16852;51.446;6.528;2024-01-27T02:47:39;12.02;;;3.20;;
27857;SDS011;16852;51.446;6.528;2024-01-27T02:49:40;10.32;;;3.53;;
27857;SDS011;16852;51.446;6.528;2024-01-27T02:51:41;12.27;;;3.78;;
27857;SDS011;16852;51.446;6.528;2024-01-27T02:53:41;10.18;;;3.47;;
27857;SDS011;16852;51.446;6.528;2024-01-27T02:55:42;12.15;;;3.60;;
27857;SDS011;16852;51.446;6.528;2024-01-27T02:57:43;10.00;;;3.38;;
27857;SDS011;16852;51.446;6.528;2024-01-27T02:59:46;13.18;;;3.47;;
27857;SDS011;16852;51.446;6.528;2024-01-27T03:01:47;9.30;;;2.92;;
27857;SDS011;16852;51.446;6.528;2024-01-27T03:03:47;18.02;;;3.97;;
27857;SDS011;16852;51.446;6.528;2024-01-27T03:05:48;11.85;;;3.63;;
27857;SDS011;16852;51.446;6.528;2024-01-27T03:07:49;11.25;;;3.97;;
27857;SDS011;16852;51.446;6.528;2024-01-27T03:09:49;9.80;;;3.42;;
27857;SDS011;16852;51.446;6.528;2024-01-27T03:11:50;11.43;;;3.67;;
27857;SDS011;16852;51.446;6.528;2024-01-27T03:13:50;12.32;;;4.18;;
27857;SDS011;16852;51.446;6.528;2024-01-27T03:15:51;16.23;;;4.50;;
27857;SDS011;16852;51.446;6.528;2024-01-27T03:17:52;6.25;;;3.05;;
27857;SDS011;16852;51.446;6.528;2024-01-27T03:19:52;17.05;;;3.75;;
27857;SDS011;16852;51.446;6.528;2024-01-27T03:21:53;7.85;;;3.25;;
27857;SDS011;16852;51.446;6.528;2024-01-27T03:23:54;10.52;;;3.78;;
27857;SDS011;16852;51.446;6.528;2024-01-27T03:25:54;13.52;;;3.67;;
27857;SDS011;16852;51.446;6.528;2024-01-27T03:27:55;13.65;;;4.38;;
27857;SDS011;16852;51.446;6.528;2024-01-27T03:29:58;9.73;;;3.50;;
27857;SDS011;16852;51.446;6.528;2024-01-27T03:32:00;11.43;;;3.80;;
27857;SDS011;16852;51.446;6.528;2024-01-27T03:34:01;11.15;;;3.55;;
27857;SDS011;16852;51.446;6.528;2024-01-27T03:36:02;12.17;;;3.47;;
27857;SDS011;16852;51.446;6.528;2024-01-27T03:38:03;9.75;;;3.20;;
27857;SDS011;16852;51.446;6.528;2024-01-27T03:40:04;12.65;;;3.90;;
27857;SDS011;16852;51.446;6.528;2024-01-27T03:42:05;8.75;;;3.58;;
27857;SDS011;16852;51.446;6.528;2024-01-27T03:44:05;13.90;;;3.58;;
27857;SDS011;16852;51.446;6.528;2024-01-27T03:46:06;9.05;;;3.53;;
27857;SDS011;16852;51.446;6.528;2024-01-27T03:48:06;6.30;;;3.15;;
27857;SDS011;16852;51.446;6.528;2024-01-27T03:50:07;11.57;;;4.18;;
27857;SDS011;16852;51.446;6.528;2024-01-27T03:52:08;9.73;;;4.07;;
27857;SDS011;16852;51.446;6.528;2024-01-27T03:54:10;11.02;;;3.53;;
27857;SDS011;16852;51.446;6.528;2024-01-27T03:56:13;10.90;;;3.15;;
27857;SDS011;16852;51.446;6.528;2024-01-27T03:58:14;9.88;;;3.75;;
27857;SDS011;16852;51.446;6.528;2024-01-27T04:00:14;12.48;;;4.18;;
27857;SDS011;16852;51.446;6.528;2024-01-27T04:02:15;9.48;;;3.47;;
27857;SDS011;16852;51.446;6.528;2024-01-27T04:04:16;11.63;;;4.03;;
27857;SDS011;16852;51.446;6.528;2024-01-27T04:06:16;10.18;;;3.38;;
27857;SDS011;16852;51.446;6.528;2024-01-27T04:08:17;9.82;;;3.63;;
27857;SDS011;16852;51.446;6.528;2024-01-27T04:10:18;10.05;;;3.58;;
27857;SDS011;16852;51.446;6.528;2024-01-27T04:12:19;14.15;;;4.05;;
27857;SDS011;16852;51.446;6.528;2024-01-27T04:14:19;10.05;;;3.58;;
27857;SDS011;16852;51.446;6.528;2024-01-27T04:16:20;10.13;;;4.10;;
27857;SDS011;16852;51.446;6.528;2024-01-27T04:18:20;7.70;;;3.40;;
27857;SDS011;16852;51.446;6.528;2024-01-27T04:20:21;9.98;;;3.42;;
27857;SDS011;16852;51.446;6.528;2024-01-27T04:22:21;9.68;;;3.40;;
27857;SDS011;16852;51.446;6.528;2024-01-27T04:24:22;18.70;;;4.70;;
27857;SDS011;16852;51.446;6.528;2024-01-27T04:26:23;13.27;;;4.13;;
27857;SDS011;16852;51.446;6.528;2024-01-27T04:28:23;10.60;;;3.42;;
27857;SDS011;16852;51.446;6.528;2024-01-27T04:30:24;10.52;;;3.92;;
27857;SDS011;16852;51.446;6.528;2024-01-27T04:32:24;10.00;;;3.47;;
27857;SDS011;16852;51.446;6.528;2024-01-27T04:34:26;18.07;;;4.23;;
27857;SDS011;16852;51.446;6.528;2024-01-27T04:36:27;11.45;;;4.10;;
27857;SDS011;16852;51.446;6.528;2024-01-27T04:38:31;14.15;;;3.80;;
27857;SDS011;16852;51.446;6.528;2024-01-27T04:40:31;12.82;;;4.28;;
27857;SDS011;16852;51.446;6.528;2024-01-27T04:42:33;8.52;;;3.92;;
27857;SDS011;16852;51.446;6.528;2024-01-27T04:44:34;7.18;;;3.47;;
27857;SDS011;16852;51.446;6.528;2024-01-27T04:46:35;7.25;;;3.55;;
27857;SDS011;16852;51.446;6.528;2024-01-27T04:48:36;7.85;;;4.00;;
27857;SDS011;16852;51.446;6.528;2024-01-27T04:50:36;11.55;;;4.03;;
27857;SDS011;16852;51.446;6.528;2024-01-27T04:52:37;10.75;;;3.47;;
27857;SDS011;16852;51.446;6.528;2024-01-27T04:54:37;12.15;;;3.92;;
27857;SDS011;16852;51.446;6.528;2024-01-27T04:56:38;11.07;;;3.38;;
27857;SDS011;16852;51.446;6.528;2024-01-27T04:58:39;11.05;;;4.32;;
27857;SDS011;16852;51.446;6.528;2024-01-27T05:00:39;12.13;;;3.95;;
27857;SDS011;16852;51.446;6.528;2024-01-27T05:02:40;15.35;;;3.85;;
27857;SDS011;16852;51.446;6.528;2024-01-27T05:04:42;9.55;;;3.80;;
27857;SDS011;16852;51.446;6.528;2024-01-27T05:06:45;9.57;;;3.53;;
27857;SDS011;16852;51.446;6.528;2024-01-27T05:08:46;9.32;;;3.55;;
27857;SDS011;16852;51.446;6.528;2024-01-27T05:10:46;9.57;;;3.60;;
27857;SDS011;16852;51.446;6.528;2024-01-27T05:12:47;11.50;;;3.95;;
27857;SDS011;16852;51.446;6.528;2024-01-27T05:14:48;10.90;;;3.75;;
27857;SDS011;16852;51.446;6.528;2024-01-27T05:16:48;15.80;;;4.60;;
27857;SDS011;16852;51.446;6.528;2024-01-27T05:18:49;10.73;;;3.67;;
27857;SDS011;16852;51.446;6.528;2024-01-27T05:20:49;12.25;;;4.38;;
27857;SDS011;16852;51.446;6.528;2024-01-27T05:22:50;10.25;;;4.28;;
27857;SDS011;16852;51.446;6.528;2024-01-27T05:24:51;10.85;;;4.07;;
27857;SDS011;16852;51.446;6.528;2024-01-27T05:26:51;7.63;;;3.58;;
27857;SDS011;16852;51.446;6.528;2024-01-27T05:28:52;8.40;;;3.88;;
27857;SDS011;16852;51.446;6.528;2024-01-27T05:30:53;12.77;;;4.07;;
27857;SDS011;16852;51.446;6.528;2024-01-27T05:32:53;10.68;;;4.10;;
27857;SDS011;16852;51.446;6.528;2024-01-27T05:34:54;16.17;;;4.68;;
27857;SDS011;16852;51.446;6.528;2024-01-27T05:36:54;12.35;;;3.85;;
27857;SDS011;16852;51.446;6.528;2024-01-27T05:38:55;14.02;;;5.22;;
27857;SDS011;16852;51.446;6.528;2024-01-27T05:40:56;11.77;;;4.13;;
27857;SDS011;16852;51.446;6.528;2024-01-27T05:42:56;15.15;;;4.35;;
27857;SDS011;16852;51.446;6.528;2024-01-27T05:44:57;11.30;;;4.13;;
27857;SDS011;16852;51.446;6.528;2024-01-27T05:46:58;12.93;;;4.20;;
27857;SDS011;16852;51.446;6.528;2024-01-27T05:48:58;13.73;;;5.10;;
27857;SDS011;16852;51.446;6.528;2024-01-27T05:51:03;12.48;;;4.88;;
27857;SDS011;16852;51.446;6.528;2024-01-27T05:53:03;13.13;;;5.28;;
27857;SDS011;16852;51.446;6.528;2024-01-27T05:55:04;13.02;;;4.80;;
27857;SDS011;16852;51.446;6.528;2024-01-27T05:57:06;15.35;;;5.18;;
27857;SDS011;16852;51.446;6.528;2024-01-27T05:59:07;24.70;;;5.75;;
27857;SDS011;16852;51.446;6.528;2024-01-27T06:01:08;14.90;;;5.93;;
27857;SDS011;16852;51.446;6.528;2024-01-27T06:03:10;12.75;;;4.68;;
27857;SDS011;16852;51.446;6.528;2024-01-27T06:05:10;11.35;;;4.57;;
27857;SDS011;16852;51.446;6.528;2024-01-27T06:07:11;11.63;;;4.78;;
27857;SDS011;16852;51.446;6.528;2024-01-27T06:09:11;11.30;;;4.78;;
27857;SDS011;16852;51.446;6.528;2024-01-27T06:11:13;13.13;;;4.78;;
27857;SDS011;16852;51.446;6.528;2024-01-27T06:13:14;13.50;;;4.53;;
27857;SDS011;16852;51.446;6.528;2024-01-27T06:15:16;14.77;;;4.80;;
27857;SDS011;16852;51.446;6.528;2024-01-27T06:17:16;11.00;;;4.05;;
27857;SDS011;16852;51.446;6.528;2024-01-27T06:19:17;14.73;;;4.63;;
27857;SDS011;16852;51.446;6.528;2024-01-27T06:21:18;9.88;;;4.05;;
27857;SDS011;16852;51.446;6.528;2024-01-27T06:23:18;12.60;;;4.75;;
27857;SDS011;16852;51.446;6.528;2024-01-27T06:25:20;11.38;;;4.55;;
27857;SDS011;16852;51.446;6.528;2024-01-27T06:27:21;14.73;;;4.67;;
27857;SDS011;16852;51.446;6.528;2024-01-27T06:29:21;11.50;;;4.30;;
27857;SDS011;16852;51.446;6.528;2024-01-27T06:31:23;11.97;;;4.07;;
27857;SDS011;16852;51.446;6.528;2024-01-27T06:33:23;10.60;;;4.32;;
27857;SDS011;16852;51.446;6.528;2024-01-27T06:35:24;13.02;;;4.32;;
27857;SDS011;16852;51.446;6.528;2024-01-27T06:37:24;15.45;;;5.90;;
27857;SDS011;16852;51.446;6.528;2024-01-27T06:39:25;11.57;;;4.65;;
27857;SDS011;16852;51.446;6.528;2024-01-27T06:41:26;14.60;;;5.13;;
27857;SDS011;16852;51.446;6.528;2024-01-27T06:43:26;9.75;;;4.53;;
27857;SDS011;16852;51.446;6.528;2024-01-27T06:45:27;13.32;;;5.57;;
27857;SDS011;16852;51.446;6.528;2024-01-27T06:47:28;9.32;;;4.72;;
27857;SDS011;16852;51.446;6.528;2024-01-27T06:49:29;11.65;;;4.40;;
27857;SDS011;16852;51.446;6.528;2024-01-27T06:51:30;13.77;;;5.10;;
27857;SDS011;16852;51.446;6.528;2024-01-27T06:53:30;9.32;;;4.28;;
27857;SDS011;16852;51.446;6.528;2024-01-27T06:55:31;13.32;;;4.82;;
27857;SDS011;16852;51.446;6.528;2024-01-27T06:57:32;17.63;;;5.70;;
27857;SDS011;16852;51.446;6.528;2024-01-27T06:59:34;16.70;;;4.90;;
27857;SDS011;16852;51.446;6.528;2024-01-27T07:01:34;12.00;;;5.35;;
27857;SDS011;16852;51.446;6.528;2024-01-27T07:03:35;10.80;;;5.07;;
27857;SDS011;16852;51.446;6.528;2024-01-27T07:05:36;24.73;;;6.57;;
27857;SDS011;16852;51.446;6.528;2024-01-27T07:07:40;15.23;;;5.93;;
27857;SDS011;16852;51.446;6.528;2024-01-27T07:09:41;18.92;;;7.15;;
27857;SDS011;16852;51.446;6.528;2024-01-27T07:11:42;14.35;;;6.53;;
27857;SDS011;16852;51.446;6.528;2024-01-27T07:13:42;21.20;;;7.15;;
27857;SDS011;16852;51.446;6.528;2024-01-27T07:15:43;22.02;;;7.25;;
27857;SDS011;16852;51.446;6.528;2024-01-27T07:17:44;19.08;;;6.45;;
27857;SDS011;16852;51.446;6.528;2024-01-27T07:19:44;19.95;;;6.80;;
27857;SDS011;16852;51.446;6.528;2024-01-27T07:21:45;13.23;;;5.70;;
27857;SDS011;16852;51.446;6.528;2024-01-27T07:23:45;17.17;;;6.25;;
27857;SDS011;16852;51.446;6.528;2024-01-27T07:25:46;17.70;;;6.22;;
27857;SDS011;16852;51.446;6.528;2024-01-27T07:27:46;14.15;;;5.40;;
27857;SDS011;16852;51.446;6.528;2024-01-27T07:29:47;14.50;;;5.45;;
27857;SDS011;16852;51.446;6.528;2024-01-27T07:31:49;14.73;;;4.80;;
27857;SDS011;16852;51.446;6.528;2024-01-27T07:33:50;22.00;;;5.50;;
27857;SDS011;16852;51.446;6.528;2024-01-27T07:35:51;20.55;;;5.88;;
27857;SDS011;16852;51.446;6.528;2024-01-27T07:37:51;19.25;;;5.78;;
27857;SDS011;16852;51.446;6.528;2024-01-27T07:39:52;20.73;;;6.25;;
27857;SDS011;16852;51.446;6.528;2024-01-27T07:41:52;14.43;;;5.38;;
27857;SDS011;16852;51.446;6.528;2024-01-27T07:43:54;15.18;;;5.20;;
27857;SDS011;16852;51.446;6.528;2024-01-27T07:45:55;13.53;;;5.43;;
27857;SDS011;16852;51.446;6.528;2024-01-27T07:47:55;11.23;;;5.25;;
27857;SDS011;16852;51.446;6.528;2024-01-27T07:49:56;12.40;;;5.22;;
27857;SDS011;16852;51.446;6.528;2024-01-27T07:51:56;16.95;;;5.88;;
27857;SDS011;16852;51.446;6.528;2024-01-27T07:53:57;19.48;;;5.93;;
27857;SDS011;16852;51.446;6.528;2024-01-27T07:55:58;14.00;;;5.65;;
27857;SDS011;16852;51.446;6.528;2024-01-27T07:57:58;18.42;;;6.15;;
27857;SDS011;16852;51.446;6.528;2024-01-27T07:59:59;15.30;;;5.30;;
27857;SDS011;16852;51.446;6.528;2024-01-27T08:02:00;10.45;;;5.22;;
27857;SDS011;16852;51.446;6.528;2024-01-27T08:04:00;15.70;;;5.93;;
27857;SDS011;16852;51.446;6.528;2024-01-27T08:06:04;13.77;;;4.90;;
27857;SDS011;16852;51.446;6.528;2024-01-27T08:08:05;16.40;;;4.90;;
27857;SDS011;16852;51.446;6.528;2024-01-27T08:10:06;16.65;;;5.57;;
27857;SDS011;16852;51.446;6.528;2024-01-27T08:12:10;14.18;;;5.07;;
27857;SDS011;16852;51.446;6.528;2024-01-27T08:14:11;14.73;;;4.97;;
27857;SDS011;16852;51.446;6.528;2024-01-27T08:16:12;17.23;;;5.15;;
27857;SDS011;16852;51.446;6.528;2024-01-27T08:18:14;20.88;;;6.20;;
27857;SDS011;16852;51.446;6.528;2024-01-27T08:20:14;15.07;;;4.68;;
27857;SDS011;16852;51.446;6.528;2024-01-27T08:22:15;12.40;;;4.57;;
27857;SDS011;16852;51.446;6.528;2024-01-27T08:24:15;14.45;;;5.00;;
27857;SDS011;16852;51.446;6.528;2024-01-27T08:26:16;14.82;;;4.97;;
27857;SDS011;16852;51.446;6.528;2024-01-27T08:28:18;14.07;;;5.45;;
27857;SDS011;16852;51.446;6.528;2024-01-27T08:30:19;14.02;;;5.22;;
27857;SDS011;16852;51.446;6.528;2024-01-27T08:32:19;19.27;;;5.35;;
27857;SDS011;16852;51.446;6.528;2024-01-27T08:34:20;19.55;;;5.38;;
27857;SDS011;16852;51.446;6.528;2024-01-27T08:36:20;13.82;;;5.35;;
27857;SDS011;16852;51.446;6.528;2024-01-27T08:38:21;13.85;;;5.32;;
27857;SDS011;16852;51.446;6.528;2024-01-27T08:40:22;15.27;;;5.03;;
27857;SDS011;16852;51.446;6.528;2024-01-27T08:42:22;16.13;;;5.28;;
27857;SDS011;16852;51.446;6.528;2024-01-27T08:44:23;15.95;;;5.72;;
27857;SDS011;16852;51.446;6.528;2024-01-27T08:46:24;17.55;;;5.72;;
27857;SDS011;16852;51.446;6.528;2024-01-27T08:48:25;12.93;;;4.80;;
27857;SDS011;16852;51.446;6.528;2024-01-27T08:50:25;12.57;;;5.70;;
27857;SDS011;16852;51.446;6.528;2024-01-27T08:52:26;14.00;;;5.38;;
27857;SDS011;16852;51.446;6.528;2024-01-27T08:54:27;15.38;;;5.40;;
27857;SDS011;16852;51.446;6.528;2024-01-27T08:56:27;15.52;;;5.55;;
27857;SDS011;16852;51.446;6.528;2024-01-27T08:58:28;15.13;;;5.25;;
27857;SDS011;16852;51.446;6.528;2024-01-27T09:00:28;16.35;;;5.13;;
27857;SDS011;16852;51.446;6.528;2024-01-27T09:02:29;12.80;;;5.10;;
27857;SDS011;16852;51.446;6.528;2024-01-27T09:04:29;13.02;;;5.03;;
27857;SDS011;16852;51.446;6.528;2024-01-27T09:06:30;15.75;;;5.63;;
27857;SDS011;16852;51.446;6.528;2024-01-27T09:08:31;12.82;;;5.13;;
27857;SDS011;16852;51.446;6.528;2024-01-27T09:10:32;13.18;;;5.00;;
27857;SDS011;16852;51.446;6.528;2024-01-27T09:12:32;14.15;;;5.35;;
27857;SDS011;16852;51.446;6.528;2024-01-27T09:14:33;12.18;;;5.43;;
27857;SDS011;16852;51.446;6.528;2024-01-27T09:16:33;13.45;;;5.20;;
27857;SDS011;16852;51.446;6.528;2024-01-27T09:18:34;14.38;;;5.78;;
27857;SDS011;16852;51.446;6.528;2024-01-27T09:20:35;18.02;;;5.80;;
27857;SDS011;16852;51.446;6.528;2024-01-27T09:22:36;16.75;;;5.65;;
27857;SDS011;16852;51.446;6.528;2024-01-27T09:24:36;12.90;;;5.30;;
27857;SDS011;16852;51.446;6.528;2024-01-27T09:26:37;12.90;;;5.72;;
27857;SDS011;16852;51.446;6.528;2024-01-27T09:28:37;14.82;;;5.78;;
27857;SDS011;16852;51.446;6.528;2024-01-27T09:30:38;15.63;;;5.53;;
27857;SDS011;16852;51.446;6.528;2024-01-27T09:32:39;13.90;;;5.22;;
27857;SDS011;16852;51.446;6.528;2024-01-27T09:34:40;14.13;;;5.65;;
27857;SDS011;16852;51.446;6.528;2024-01-27T09:36:40;16.35;;;5.45;;
27857;SDS011;16852;51.446;6.528;2024-01-27T09:38:41;13.45;;;5.32;;
27857;SDS011;16852;51.446;6.528;2024-01-27T09:40:41;15.65;;;5.80;;
27857;SDS011;16852;51.446;6.528;2024-01-27T09:42:44;12.82;;;4.63;;
27857;SDS011;16852;51.446;6.528;2024-01-27T09:44:55;11.93;;;5.18;;
27857;SDS011;16852;51.446;6.528;2024-01-27T09:46:58;14.88;;;5.43;;
27857;SDS011;16852;51.446;6.528;2024-01-27T09:48:59;16.42;;;5.68;;
27857;SDS011;16852;51.446;6.528;2024-01-27T09:51:01;10.10;;;4.80;;
27857;SDS011;16852;51.446;6.528;2024-01-27T09:53:03;13.30;;;5.50;;
27857;SDS011;16852;51.446;6.528;2024-01-27T09:55:08;16.10;;;5.22;;
27857;SDS011;16852;51.446;6.528;2024-01-27T09:57:09;15.00;;;5.43;;
27857;SDS011;16852;51.446;6.528;2024-01-27T09:59:11;13.38;;;4.95;;
27857;SDS011;16852;51.446;6.528;2024-01-27T10:01:18;13.95;;;5.47;;
27857;SDS011;16852;51.446;6.528;2024-01-27T10:03:20;11.45;;;4.95;;
27857;SDS011;16852;51.446;6.528;2024-01-27T10:05:22;12.27;;;5.35;;
27857;SDS011;16852;51.446;6.528;2024-01-27T10:07:24;15.25;;;5.15;;
27857;SDS011;16852;51.446;6.528;2024-01-27T10:09:25;15.88;;;5.45;;
27857;SDS011;16852;51.446;6.528;2024-01-27T10:11:26;12.45;;;5.10;;
27857;SDS011;16852;51.446;6.528;2024-01-27T10:13:28;16.75;;;5.30;;
27857;SDS011;16852;51.446;6.528;2024-01-27T10:15:28;14.40;;;5.88;;
27857;SDS011;16852;51.446;6.528;2024-01-27T10:17:29;10.35;;;4.70;;
27857;SDS011;16852;51.446;6.528;2024-01-27T10:19:34;16.35;;;4.68;;
27857;SDS011;16852;51.446;6.528;2024-01-27T10:21:35;13.88;;;5.22;;
27857;SDS011;16852;51.446;6.528;2024-01-27T10:23:38;18.75;;;5.85;;
27857;SDS011;16852;51.446;6.528;2024-01-27T10:25:39;13.85;;;4.90;;
27857;SDS011;16852;51.446;6.528;2024-01-27T10:27:40;14.00;;;4.90;;
27857;SDS011;16852;51.446;6.528;2024-01-27T10:29:51;13.18;;;5.05;;
27857;SDS011;16852;51.446;6.528;2024-01-27T10:31:52;14.68;;;4.47;;
27857;SDS011;16852;51.446;6.528;2024-01-27T10:33:53;14.27;;;5.22;;
27857;SDS011;16852;51.446;6.528;2024-01-27T10:35:57;14.88;;;5.00;;
27857;SDS011;16852;51.446;6.528;2024-01-27T10:37:58;14.65;;;4.78;;
27857;SDS011;16852;51.446;6.528;2024-01-27T10:42:09;12.45;;;4.13;;
27857;SDS011;16852;51.446;6.528;2024-01-27T10:44:11;11.18;;;4.65;;
27857;SDS011;16852;51.446;6.528;2024-01-27T10:46:14;11.63;;;4.60;;
27857;SDS011;16852;51.446;6.528;2024-01-27T10:48:16;14.03;;;5.70;;
27857;SDS011;16852;51.446;6.528;2024-01-27T10:50:17;14.15;;;4.57;;
27857;SDS011;16852;51.446;6.528;2024-01-27T10:52:18;14.05;;;4.80;;
27857;SDS011;16852;51.446;6.528;2024-01-27T10:54:23;13.52;;;4.90;;
27857;SDS011;16852;51.446;6.528;2024-01-27T10:56:31;17.05;;;5.78;;
27857;SDS011;16852;51.446;6.528;2024-01-27T10:58:33;14.05;;;4.53;;
27857;SDS011;16852;51.446;6.528;2024-01-27T11:00:40;13.90;;;4.95;;
27857;SDS011;16852;51.446;6.528;2024-01-27T11:04:44;17.27;;;4.63;;
27857;SDS011;16852;51.446;6.528;2024-01-27T11:06:48;11.65;;;4.78;;
27857;SDS011;16852;51.446;6.528;2024-01-27T11:08:49;10.05;;;4.18;;
27857;SDS011;16852;51.446;6.528;2024-01-27T11:10:50;11.63;;;4.32;;
27857;SDS011;16852;51.446;6.528;2024-01-27T11:12:51;16.88;;;4.28;;
27857;SDS011;16852;51.446;6.528;2024-01-27T11:14:53;14.90;;;4.38;;
27857;SDS011;16852;51.446;6.528;2024-01-27T11:16:58;15.48;;;4.80;;
27857;SDS011;16852;51.446;6.528;2024-01-27T11:18:59;22.90;;;5.45;;
27857;SDS011;16852;51.446;6.528;2024-01-27T11:21:00;15.73;;;5.07;;
27857;SDS011;16852;51.446;6.528;2024-01-27T11:23:10;18.08;;;5.68;;
27857;SDS011;16852;51.446;6.528;2024-01-27T11:27:13;14.23;;;4.85;;
27857;SDS011;16852;51.446;6.528;2024-01-27T11:29:14;13.20;;;4.53;;
27857;SDS011;16852;51.446;6.528;2024-01-27T11:31:21;14.70;;;4.68;;
27857;SDS011;16852;51.446;6.528;2024-01-27T11:33:24;12.55;;;4.70;;
27857;SDS011;16852;51.446;6.528;2024-01-27T11:35:25;17.08;;;5.13;;
27857;SDS011;16852;51.446;6.528;2024-01-27T11:37:29;12.82;;;3.83;;
27857;SDS011;16852;51.446;6.528;2024-01-27T11:39:30;14.65;;;5.10;;
27857;SDS011;16852;51.446;6.528;2024-01-27T11:41:31;14.32;;;4.50;;
27857;SDS011;16852;51.446;6.528;2024-01-27T11:43:32;13.73;;;4.18;;
27857;SDS011;16852;51.446;6.528;2024-01-27T11:45:33;9.20;;;4.22;;
27857;SDS011;16852;51.446;6.528;2024-01-27T11:47:34;15.77;;;4.18;;
27857;SDS011;16852;51.446;6.528;2024-01-27T11:49:34;10.52;;;3.55;;
27857;SDS011;16852;51.446;6.528;2024-01-27T11:51:35;11.82;;;4.30;;
27857;SDS011;16852;51.446;6.528;2024-01-27T11:53:36;14.07;;;4.15;;
27857;SDS011;16852;51.446;6.528;2024-01-27T11:55:37;12.25;;;4.00;;
27857;SDS011;16852;51.446;6.528;2024-01-27T11:57:38;14.88;;;4.45;;
27857;SDS011;16852;51.446;6.528;2024-01-27T11:59:38;13.00;;;4.22;;
27857;SDS011;16852;51.446;6.528;2024-01-27T12:01:39;10.73;;;3.67;;
27857;SDS011;16852;51.446;6.528;2024-01-27T12:03:40;10.77;;;3.50;;
27857;SDS011;16852;51.446;6.528;2024-01-27T12:05:42;11.55;;;3.35;;
27857;SDS011;16852;51.446;6.528;2024-01-27T12:07:42;14.77;;;4.18;;